Cowansville, Canada
Current Conditions -  °F | °C
As of 3:55 PM on Thursday 27 Nov 2014 (Local Time) from KFSO Reporting Station
Overcast Overcast  
Wind Chill: 28°   Ceiling: 3100
Heat Index: 28°   Visibility: 10mi
Dew Point: 18°   Wind: 3mph
Humidity: 67%   Direction: 360°N
Pressure: 30.04"   Gusts: NA
Location:  45.2°N, 72.75°W
Report Text: KFSO 272055Z AUTO 36003KT 10SM OVC031 M02/M08 A3004 RMK AO2 T10251078
Loading
Personal Weather Stations






























Interactive Weather Map New forecast layout! Learn more

10-Day Weather Forecast

Advertisements
Track Severe Weather on mobile